Time;durP1;ratioP1;P1;durP2;ratioP2;P2;SDS_P1;SDS_P2;PMS_P1;PMS_P2;Temp;Humidity;BMP_temperature;BMP_pressure;BME280_temperature;BME280_humidity;BME280_pressure;Samples;Min_cycle;Max_cycle;Signal;HPM_P1;HPM_P2
2023/02/15 00:00:43;;;;;;;6.73;6.13;;;;;16.00;101760.00;;;;2087823;28;20201;-50
2023/02/15 00:01:44;;;;;;;7.73;7.00;;;;;16.00;101763.00;;;;2087782;28;20225;-50
2023/02/15 00:02:44;;;;;;;6.83;6.33;;;;;16.00;101766.00;;;;2087651;28;20248;-50
2023/02/15 00:03:44;;;;;;;7.10;6.50;;;;;16.00;101765.00;;;;2087660;28;20216;-50
2023/02/15 00:04:47;;;;;;;8.03;6.87;;;;;16.10;101764.00;;;;2087408;28;20267;-50
2023/02/15 00:05:48;;;;;;;6.80;6.20;;;;;16.00;101762.00;;;;2087564;28;20217;-50
2023/02/15 00:06:48;;;;;;;7.50;6.80;;;;;16.00;101762.00;;;;2087436;28;20721;-50
2023/02/15 00:07:48;;;;;;;7.13;6.43;;;;;16.00;101753.00;;;;2087533;28;20677;-50
2023/02/15 00:08:49;;;;;;;7.53;6.83;;;;;16.00;101755.00;;;;2086764;28;20212;-50
2023/02/15 00:09:49;;;;;;;6.97;6.37;;;;;16.00;101756.00;;;;2087234;28;20275;-50
2023/02/15 00:10:49;;;;;;;6.87;6.13;;;;;16.00;101754.00;;;;2087325;28;20227;-50
2023/02/15 00:11:50;;;;;;;7.20;6.40;;;;;16.00;101740.00;;;;2087559;28;20255;-50
2023/02/15 00:12:50;;;;;;;7.33;6.43;;;;;16.00;101754.00;;;;2087550;28;20221;-50
2023/02/15 00:13:51;;;;;;;7.63;6.87;;;;;16.00;101745.00;;;;2087429;28;20237;-50
2023/02/15 00:14:51;;;;;;;7.93;7.13;;;;;16.00;101749.00;;;;2086843;28;20212;-50
2023/02/15 00:15:51;;;;;;;7.50;6.80;;;;;16.00;101747.00;;;;2087523;28;20304;-51
2023/02/15 00:16:52;;;;;;;7.83;7.13;;;;;16.00;101750.00;;;;2087551;28;20213;-50
2023/02/15 00:17:53;;;;;;;6.65;6.05;;;;;16.00;101756.00;;;;2087016;28;20217;-50
2023/02/15 00:18:53;;;;;;;6.60;6.00;;;;;16.00;101749.00;;;;2086471;28;20212;-51
2023/02/15 00:19:53;;;;;;;8.60;7.80;;;;;16.00;101749.00;;;;2086442;28;20243;-50
2023/02/15 00:20:54;;;;;;;7.37;6.70;;;;;16.10;101750.00;;;;2087380;28;20228;-50
2023/02/15 00:21:54;;;;;;;7.50;6.70;;;;;16.00;101744.00;;;;2087544;28;20213;-50
2023/02/15 00:22:54;;;;;;;8.03;7.23;;;;;16.00;101744.00;;;;2087322;28;20308;-50
2023/02/15 00:23:56;;;;;;;6.47;5.87;;;;;16.00;101744.00;;;;2087459;28;20692;-50
2023/02/15 00:24:56;;;;;;;6.82;6.22;;;;;16.00;101745.00;;;;2087316;28;20221;-50
2023/02/15 00:26:06;;;;;;;7.10;6.50;;;;;16.00;101735.00;;;;2086759;28;20430;-50
2023/02/15 00:27:08;;;;;;;7.55;6.85;;;;;16.00;101744.00;;;;2087344;28;20274;-50
2023/02/15 00:28:09;;;;;;;6.97;6.28;;;;;16.00;101747.00;;;;2086311;28;20220;-50
2023/02/15 00:29:09;;;;;;;7.03;6.43;;;;;16.00;101744.00;;;;2087452;28;20224;-51
2023/02/15 00:30:10;;;;;;;6.87;6.20;;;;;16.00;101743.00;;;;2087397;28;20213;-50
2023/02/15 00:31:11;;;;;;;6.90;6.30;;;;;16.00;101743.00;;;;2087034;28;20414;-50
2023/02/15 00:32:11;;;;;;;7.28;6.57;;;;;16.00;101738.00;;;;2086908;28;20258;-51
2023/02/15 00:33:12;;;;;;;6.10;5.60;;;;;16.00;101734.00;;;;2087353;28;20306;-51
2023/02/15 00:34:23;;;;;;;6.80;6.20;;;;;16.00;101734.00;;;;2087343;28;20213;-52
2023/02/15 00:35:23;;;;;;;7.30;6.47;;;;;16.00;101734.00;;;;2084244;28;20299;-50
2023/02/15 00:36:24;;;;;;;6.87;6.20;;;;;16.00;101736.00;;;;2085861;28;20638;-50
2023/02/15 00:37:24;;;;;;;7.40;6.80;;;;;16.00;101739.00;;;;2087327;28;20220;-50
2023/02/15 00:38:28;;;;;;;6.70;6.10;;;;;16.00;101737.00;;;;2086382;28;20220;-50
2023/02/15 00:39:28;;;;;;;6.10;5.60;;;;;16.00;101739.00;;;;2087136;28;20257;-50
2023/02/15 00:40:29;;;;;;;7.30;6.70;;;;;16.00;101736.00;;;;2087335;28;20244;-50
2023/02/15 00:41:29;;;;;;;7.00;6.40;;;;;16.00;101734.00;;;;2087286;28;20981;-50
2023/02/15 00:42:29;;;;;;;7.23;6.53;;;;;16.00;101737.00;;;;2087224;28;20628;-50
2023/02/15 00:43:30;;;;;;;7.73;7.03;;;;;16.00;101745.00;;;;2086894;28;20586;-51
2023/02/15 00:44:30;;;;;;;7.17;6.57;;;;;16.00;101739.00;;;;2087011;28;20591;-50
2023/02/15 00:45:31;;;;;;;6.70;6.10;;;;;16.00;101737.00;;;;2087160;28;20227;-50
2023/02/15 00:46:31;;;;;;;6.93;6.30;;;;;16.00;101736.00;;;;2087131;28;20213;-50
2023/02/15 00:47:32;;;;;;;7.13;6.43;;;;;16.00;101740.00;;;;2087398;28;20240;-50
2023/02/15 00:48:32;;;;;;;7.57;6.87;;;;;16.00;101741.00;;;;2086416;28;20845;-50
2023/02/15 00:49:32;;;;;;;7.90;7.20;;;;;16.00;101742.00;;;;2087133;28;20838;-50
2023/02/15 00:50:33;;;;;;;7.23;6.53;;;;;16.00;101742.00;;;;2087037;28;20240;-50
2023/02/15 00:51:33;;;;;;;7.10;6.50;;;;;16.00;101737.00;;;;2087334;28;20209;-50
2023/02/15 00:52:33;;;;;;;8.20;7.43;;;;;16.00;101740.00;;;;2087239;28;20213;-50
2023/02/15 00:53:33;;;;;;;7.70;7.00;;;;;16.00;101744.00;;;;2086995;28;20216;-50
2023/02/15 00:54:34;;;;;;;7.07;6.43;;;;;16.00;101743.00;;;;2086982;28;20224;-50
2023/02/15 00:55:34;;;;;;;7.40;6.67;;;;;16.00;101742.00;;;;2087322;28;20286;-50
2023/02/15 00:56:35;;;;;;;7.47;6.77;;;;;16.00;101744.00;;;;2087111;28;20210;-50
2023/02/15 00:57:35;;;;;;;6.60;6.00;;;;;16.00;101751.00;;;;2086943;28;20350;-50
2023/02/15 00:58:35;;;;;;;6.80;6.30;;;;;16.00;101746.00;;;;2086487;28;20236;-50
2023/02/15 00:59:36;;;;;;;8.47;7.57;;;;;16.00;101738.00;;;;2087259;28;20216;-50
2023/02/15 01:00:36;;;;;;;7.77;7.00;;;;;16.00;101741.00;;;;2087348;28;20223;-50
2023/02/15 01:01:37;;;;;;;6.90;6.30;;;;;16.00;101745.00;;;;2087008;28;20240;-50
2023/02/15 01:02:37;;;;;;;7.13;6.53;;;;;16.00;101745.00;;;;2086757;28;21012;-51
2023/02/15 01:03:37;;;;;;;7.10;6.40;;;;;16.00;101733.00;;;;2087188;28;20715;-50
2023/02/15 01:04:38;;;;;;;7.20;6.50;;;;;16.00;101742.00;;;;2086969;28;20897;-50
2023/02/15 01:05:38;;;;;;;6.83;6.13;;;;;16.00;101739.00;;;;2086863;28;20637;-50
2023/02/15 01:06:38;;;;;;;7.20;6.60;;;;;16.00;101737.00;;;;2087255;28;20240;-50
2023/02/15 01:07:39;;;;;;;7.37;6.67;;;;;16.00;101737.00;;;;2087306;28;20209;-50
2023/02/15 01:08:39;;;;;;;7.17;6.47;;;;;16.00;101734.00;;;;2086277;28;20246;-50
2023/02/15 01:09:39;;;;;;;7.20;6.50;;;;;16.00;101734.00;;;;2087019;28;20290;-50
2023/02/15 01:10:40;;;;;;;7.10;6.40;;;;;16.00;101736.00;;;;2086977;28;20598;-52
2023/02/15 01:11:40;;;;;;;6.80;6.20;;;;;16.00;101671.00;;;;2086616;28;20829;-50
2023/02/15 01:12:41;;;;;;;6.70;6.10;;;;;16.00;101621.00;;;;2087225;28;20651;-50
2023/02/15 01:13:41;;;;;;;7.37;6.67;;;;;16.00;101737.00;;;;2086820;28;20634;-50
2023/02/15 01:14:41;;;;;;;6.33;5.83;;;;;16.00;101744.00;;;;2087073;28;20683;-50
2023/02/15 01:15:43;;;;;;;7.03;6.40;;;;;16.00;101740.00;;;;2087414;28;20870;-50
2023/02/15 01:16:43;;;;;;;6.60;6.00;;;;;16.00;101736.00;;;;2086307;28;20266;-50
2023/02/15 01:17:45;;;;;;;7.27;6.57;;;;;16.00;101746.00;;;;2085755;28;20354;-50
2023/02/15 01:18:45;;;;;;;6.68;6.18;;;;;16.00;101731.00;;;;2083977;28;20299;-52
2023/02/15 01:19:46;;;;;;;6.83;6.23;;;;;16.00;101735.00;;;;2085139;28;20220;-50
2023/02/15 01:20:47;;;;;;;7.20;6.47;;;;;16.00;101727.00;;;;2083702;28;20216;-51
2023/02/15 01:21:47;;;;;;;6.32;5.72;;;;;16.00;101735.00;;;;2085962;28;20240;-50
2023/02/15 01:22:49;;;;;;;5.93;5.40;;;;;16.00;101732.00;;;;2086401;28;20221;-50
2023/02/15 01:23:49;;;;;;;6.65;6.05;;;;;16.00;101725.00;;;;2086590;28;20213;-50
2023/02/15 01:24:50;;;;;;;6.77;6.10;;;;;16.00;101726.00;;;;2086236;28;20317;-51
2023/02/15 01:25:50;;;;;;;7.50;6.73;;;;;16.00;101726.00;;;;2086401;28;20296;-50
2023/02/15 01:26:51;;;;;;;6.93;6.33;;;;;16.00;101729.00;;;;2085922;28;20229;-50
2023/02/15 01:27:51;;;;;;;7.50;6.77;;;;;16.00;101725.00;;;;2085958;28;20214;-50
2023/02/15 01:28:51;;;;;;;6.63;6.03;;;;;16.00;101720.00;;;;2085988;28;20734;-50
2023/02/15 01:29:52;;;;;;;7.03;6.43;;;;;15.50;101726.00;;;;2086496;28;20423;-52
2023/02/15 01:30:52;;;;;;;7.77;7.07;;;;;15.90;101716.00;;;;2086545;28;20224;-50
2023/02/15 01:31:52;;;;;;;7.57;6.87;;;;;15.90;101723.00;;;;2085707;28;20209;-51
2023/02/15 01:32:53;;;;;;;6.60;6.03;;;;;15.90;101720.00;;;;2086592;28;20247;-50
2023/02/15 01:33:53;;;;;;;6.57;5.97;;;;;16.00;101723.00;;;;2086285;28;20213;-50
2023/02/15 01:34:53;;;;;;;7.00;6.33;;;;;15.90;101723.00;;;;2084557;28;20227;-50
2023/02/15 01:35:57;;;;;;;7.20;6.60;;;;;16.00;101716.00;;;;2086517;28;20274;-51
2023/02/15 01:36:58;;;;;;;7.22;6.53;;;;;15.90;101716.00;;;;2086267;28;20921;-50
2023/02/15 01:37:58;;;;;;;7.00;6.40;;;;;15.70;101720.00;;;;2085746;28;20284;-50
2023/02/15 01:38:58;;;;;;;7.50;6.80;;;;;16.00;101719.00;;;;2086355;28;20213;-50
2023/02/15 01:40:02;;;;;;;7.13;6.43;;;;;16.00;101719.00;;;;2085580;28;20220;-50
2023/02/15 01:42:24;;;;;;;7.05;6.30;;;;;16.00;101716.00;;;;2086171;28;20221;-50
2023/02/15 01:43:39;;;;;;;7.85;7.05;;;;;16.00;101721.00;;;;2086238;28;20836;-50
2023/02/15 01:44:58;;;;;;;7.00;6.40;;;;;16.10;101727.00;;;;2085277;28;20212;-50
2023/02/15 01:45:58;;;;;;;8.07;7.32;;;;;16.10;101720.00;;;;2085697;28;20736;-50
2023/02/15 01:46:59;;;;;;;7.23;6.53;;;;;16.10;101721.00;;;;2086549;28;20217;-50
2023/02/15 01:48:12;;;;;;;7.20;6.60;;;;;16.10;101709.00;;;;2084736;28;20375;-50
2023/02/15 01:49:17;;;;;;;7.13;6.53;;;;;16.10;101717.00;;;;2069703;28;20308;-50
2023/02/15 01:50:25;;;;;;;7.47;6.68;;;;;16.10;101705.00;;;;2069554;28;20210;-50
2023/02/15 01:51:27;;;;;;;7.10;6.50;;;;;16.10;101706.00;;;;2078249;28;20561;-50
2023/02/15 01:52:28;;;;;;;7.25;6.55;;;;;16.10;101703.00;;;;2077586;28;20279;-50
2023/02/15 01:53:31;;;;;;;6.60;6.00;;;;;16.20;101705.00;;;;2061153;28;20207;-50
2023/02/15 01:54:32;;;;;;;7.78;7.03;;;;;16.20;101695.00;;;;2068789;28;20673;-50
2023/02/15 01:55:36;;;;;;;7.30;6.60;;;;;16.20;101704.00;;;;2076652;28;20225;-50
2023/02/15 01:56:37;;;;;;;7.07;6.47;;;;;16.20;101712.00;;;;2069871;28;20475;-50
2023/02/15 01:57:37;;;;;;;6.30;5.80;;;;;16.20;101696.00;;;;2085585;28;20696;-50
2023/02/15 01:58:38;;;;;;;7.13;6.53;;;;;16.20;101699.00;;;;2085061;28;20700;-51
2023/02/15 01:59:38;;;;;;;7.00;6.37;;;;;16.20;101702.00;;;;2085721;28;20213;-50
2023/02/15 02:00:39;;;;;;;6.50;6.00;;;;;16.20;101698.00;;;;2085650;28;20216;-50
2023/02/15 02:01:39;;;;;;;6.40;5.83;;;;;16.20;101696.00;;;;2085013;28;20216;-50
2023/02/15 02:02:40;;;;;;;7.00;6.40;;;;;16.20;101704.00;;;;2086044;28;20220;-50
2023/02/15 02:04:16;;;;;;;6.82;6.22;;;;;16.20;101697.00;;;;2077110;28;20724;-50
2023/02/15 02:05:16;;;;;;;7.03;6.32;;;;;16.20;101696.00;;;;2073488;28;20245;-50
2023/02/15 02:06:17;;;;;;;7.33;6.63;;;;;16.20;101699.00;;;;2079823;28;20216;-50
2023/02/15 02:07:20;;;;;;;7.03;6.43;;;;;16.20;101673.00;;;;2085944;28;20213;-50
2023/02/15 02:08:20;;;;;;;6.82;6.15;;;;;16.30;101695.00;;;;2076356;28;20220;-50
2023/02/15 02:09:20;;;;;;;6.80;6.20;;;;;16.30;101687.00;;;;2077538;28;20214;-50
2023/02/15 02:10:22;;;;;;;7.27;6.67;;;;;16.30;101701.00;;;;2085162;28;20297;-50
2023/02/15 02:11:23;;;;;;;6.93;6.32;;;;;16.30;101691.00;;;;2085777;28;20212;-54
2023/02/15 02:12:23;;;;;;;7.00;6.40;;;;;16.30;101700.00;;;;2086324;28;20296;-50
2023/02/15 02:13:24;;;;;;;6.67;6.07;;;;;16.30;101696.00;;;;2086244;28;20939;-51
2023/02/15 02:14:24;;;;;;;6.83;6.23;;;;;16.20;101690.00;;;;2077602;28;20218;-51
2023/02/15 02:15:39;;;;;;;6.60;6.00;;;;;16.30;101675.00;;;;2077229;28;20272;-50
2023/02/15 02:17:16;;;;;;;7.38;6.13;;;;;16.30;101691.00;;;;2085917;28;20766;-50
2023/02/15 02:18:42;;;;;;;7.88;6.70;;;;;16.20;101696.00;;;;2085392;28;20299;-50
2023/02/15 02:19:58;;;;;;;7.22;6.57;;;;;16.20;101698.00;;;;2085891;28;20716;-50
2023/02/15 02:21:23;;;;;;;7.00;6.40;;;;;16.20;101685.00;;;;2086071;28;20212;-50
2023/02/15 02:22:42;;;;;;;7.10;6.40;;;;;16.30;101682.00;;;;2086575;28;20788;-50
2023/02/15 02:24:13;;;;;;;6.78;6.07;;;;;16.30;101680.00;;;;2085614;28;20291;-50
2023/02/15 02:25:51;;;;;;;6.50;5.90;;;;;16.30;101671.00;;;;2036863;28;20229;-51
2023/02/15 02:27:12;;;;;;;7.18;6.47;;;;;16.30;101675.00;;;;2086185;28;20220;-50
2023/02/15 02:28:43;;;;;;;6.63;5.95;;;;;16.30;101673.00;;;;2085084;28;20282;-50
2023/02/15 02:30:21;;;;;;;6.95;6.25;;;;;16.30;101671.00;;;;2081643;28;20630;-50
2023/02/15 02:31:42;;;;;;;7.05;6.45;;;;;16.30;101671.00;;;;2082615;28;20221;-50
2023/02/15 02:32:56;;;;;;;6.50;5.90;;;;;16.30;101661.00;;;;2085974;28;20209;-50
2023/02/15 02:34:26;;;;;;;7.22;6.53;;;;;16.30;101664.00;;;;2077596;28;20263;-51
2023/02/15 02:35:41;;;;;;;6.60;5.90;;;;;16.30;101652.00;;;;2077473;28;20216;-53
2023/02/15 02:37:02;;;;;;;7.20;6.50;;;;;16.20;101668.00;;;;2082304;28;20241;-50
2023/02/15 02:38:11;;;;;;;6.07;5.57;;;;;16.30;101664.00;;;;2084972;28;20217;-50
2023/02/15 02:39:16;;;;;;;7.40;6.68;;;;;16.30;101658.00;;;;2085898;28;20220;-50
2023/02/15 02:40:20;;;;;;;6.63;6.05;;;;;16.30;101663.00;;;;2078909;28;22806;-50
2023/02/15 02:41:31;;;;;;;6.57;5.97;;;;;16.30;101653.00;;;;2070387;28;20214;-50
2023/02/15 02:42:35;;;;;;;7.22;6.53;;;;;16.30;101658.00;;;;2071862;28;20629;-50
2023/02/15 02:43:47;;;;;;;6.65;6.05;;;;;16.30;101661.00;;;;2079593;28;20299;-50
2023/02/15 02:44:50;;;;;;;7.28;6.57;;;;;16.30;101661.00;;;;2070787;28;20281;-50
2023/02/15 02:46:00;;;;;;;6.80;6.20;;;;;16.30;101654.00;;;;2072531;28;20219;-50
2023/02/15 02:47:12;;;;;;;6.93;6.00;;;;;16.20;101670.00;;;;2064058;28;21032;-50
2023/02/15 02:48:15;;;;;;;6.30;5.80;;;;;16.30;101656.00;;;;2071979;28;20218;-50
2023/02/15 02:49:15;;;;;;;6.70;6.10;;;;;16.30;101650.00;;;;2063357;28;20249;-50
2023/02/15 02:50:26;;;;;;;5.97;5.47;;;;;16.20;101648.00;;;;2070692;28;20218;-50
2023/02/15 02:51:27;;;;;;;6.72;6.07;;;;;16.30;101650.00;;;;2080123;28;20218;-50
2023/02/15 02:52:47;;;;;;;6.70;6.10;;;;;16.30;101643.00;;;;2079943;28;20242;-50
2023/02/15 02:53:53;;;;;;;7.00;6.40;;;;;16.20;101614.00;;;;2079436;28;20674;-50
2023/02/15 02:54:54;;;;;;;7.07;6.40;;;;;16.20;101646.00;;;;2070981;28;21378;-50
2023/02/15 02:55:58;;;;;;;6.90;6.30;;;;;16.20;101637.00;;;;2070896;28;20239;-50
2023/02/15 02:56:59;;;;;;;6.75;6.13;;;;;16.20;101639.00;;;;2079747;28;20206;-50
2023/02/15 02:57:59;;;;;;;6.67;6.07;;;;;16.20;101632.00;;;;2077079;28;20222;-52
2023/02/15 02:59:20;;;;;;;6.50;5.90;;;;;16.30;101616.00;;;;2078709;28;21156;-51
2023/02/15 03:00:22;;;;;;;6.60;6.00;;;;;16.20;101638.00;;;;2070917;28;20245;-50
2023/02/15 03:01:26;;;;;;;6.95;6.35;;;;;16.20;101627.00;;;;2063010;28;20691;-50
2023/02/15 03:02:31;;;;;;;6.50;5.90;;;;;16.20;101634.00;;;;2063846;28;20580;-50
2023/02/15 03:03:37;;;;;;;6.75;6.15;;;;;16.20;101640.00;;;;2071576;28;20305;-51
2023/02/15 03:04:39;;;;;;;6.60;6.00;;;;;16.20;101630.00;;;;2070443;28;20309;-51
2023/02/15 03:05:41;;;;;;;6.55;5.95;;;;;16.20;101631.00;;;;2070737;28;20639;-50
2023/02/15 03:06:56;;;;;;;6.55;5.95;;;;;16.20;101631.00;;;;2071211;28;20230;-50
2023/02/15 03:07:57;;;;;;;6.43;5.82;;;;;16.20;101634.00;;;;2078684;28;20268;-50
2023/02/15 03:09:01;;;;;;;6.03;5.50;;;;;16.20;101630.00;;;;2079400;28;20801;-50
2023/02/15 03:10:02;;;;;;;6.60;6.00;;;;;16.20;101626.00;;;;2070498;28;20229;-52
2023/02/15 03:11:04;;;;;;;6.45;5.95;;;;;16.20;101624.00;;;;2070917;28;20214;-51
2023/02/15 03:12:04;;;;;;;6.80;6.20;;;;;16.20;101646.00;;;;2071026;28;20225;-50
2023/02/15 03:13:05;;;;;;;6.77;6.10;;;;;16.20;101614.00;;;;2078740;28;20229;-50
2023/02/15 03:14:05;;;;;;;6.60;5.90;;;;;16.20;101616.00;;;;2077318;28;20256;-51
2023/02/15 03:15:14;;;;;;;6.40;5.80;;;;;16.20;101590.00;;;;2070565;28;20332;-50
2023/02/15 03:16:27;;;;;;;5.90;5.40;;;;;16.20;101619.00;;;;2064029;28;20222;-50
2023/02/15 03:17:29;;;;;;;6.00;5.50;;;;;16.20;101613.00;;;;2073721;28;20810;-50
2023/02/15 03:18:41;;;;;;;6.75;6.15;;;;;16.20;101608.00;;;;2069855;28;20741;-50
2023/02/15 03:19:42;;;;;;;6.97;6.38;;;;;16.20;101614.00;;;;2072494;28;20841;-50
2023/02/15 03:20:42;;;;;;;6.43;5.90;;;;;16.20;101617.00;;;;2079544;28;20218;-50
2023/02/15 03:21:57;;;;;;;6.87;6.27;;;;;16.20;101622.00;;;;2070747;28;20250;-50
2023/02/15 03:23:03;;;;;;;6.00;5.50;;;;;16.20;101622.00;;;;2072691;28;20814;-50
2023/02/15 03:24:10;;;;;;;6.00;5.40;;;;;16.20;101617.00;;;;2064954;28;20227;-52
2023/02/15 03:25:13;;;;;;;6.47;5.88;;;;;16.20;101614.00;;;;2055890;28;20211;-50
2023/02/15 03:26:13;;;;;;;7.20;6.55;;;;;16.20;101619.00;;;;2071408;28;21175;-50
2023/02/15 03:27:17;;;;;;;6.43;5.83;;;;;16.20;101626.00;;;;2078063;28;20245;-50
2023/02/15 03:28:23;;;;;;;6.00;5.50;;;;;16.20;101616.00;;;;2070217;28;20269;-50
2023/02/15 03:29:25;;;;;;;6.78;6.10;;;;;16.20;101538.00;;;;2063501;28;20219;-51
2023/02/15 03:30:25;;;;;;;7.35;6.55;;;;;16.20;101613.00;;;;2071038;28;20221;-50
2023/02/15 03:31:26;;;;;;;6.90;6.30;;;;;16.20;101609.00;;;;2070687;28;20646;-51
2023/02/15 03:32:28;;;;;;;6.20;5.70;;;;;16.20;101583.00;;;;2062865;28;20582;-51
2023/02/15 03:33:28;;;;;;;6.75;5.80;;;;;16.20;101616.00;;;;2070895;28;20216;-51
2023/02/15 03:34:29;;;;;;;6.60;6.00;;;;;16.20;101621.00;;;;2062405;28;20219;-51
2023/02/15 03:35:36;;;;;;;6.03;5.53;;;;;16.20;101615.00;;;;2070533;28;20223;-51
2023/02/15 03:36:55;;;;;;;6.60;6.00;;;;;16.20;101612.00;;;;2071339;28;20206;-51
2023/02/15 03:37:59;;;;;;;6.57;5.97;;;;;16.20;101614.00;;;;2072156;28;20222;-52
2023/02/15 03:39:40;;;;;;;6.10;5.57;;;;;16.20;101614.00;;;;2070750;28;20690;-51
2023/02/15 03:42:16;;;;;;;6.05;5.55;;;;;16.20;101600.00;;;;2070521;28;20225;-50
2023/02/15 03:43:45;;;;;;;6.70;6.10;;;;;16.20;101614.00;;;;2066863;28;20221;-51
2023/02/15 03:44:57;;;;;;;7.18;6.53;;;;;16.20;101617.00;;;;2076214;28;20217;-51
2023/02/15 03:46:11;;;;;;;6.18;5.68;;;;;16.20;101593.00;;;;2080089;28;20222;-51
2023/02/15 03:47:16;;;;;;;6.38;5.78;;;;;16.20;101622.00;;;;2072012;28;20352;-51
2023/02/15 03:48:17;;;;;;;6.30;5.75;;;;;16.20;101618.00;;;;2080278;28;20308;-51
2023/02/15 03:49:21;;;;;;;6.03;5.53;;;;;16.20;101623.00;;;;2070673;28;20218;-51
2023/02/15 03:51:44;;;;;;;7.20;6.50;;;;;16.20;101617.00;;;;2072577;28;20610;-52
2023/02/15 03:52:44;;;;;;;6.38;5.78;;;;;16.20;101601.00;;;;2067590;28;20211;-51
2023/02/15 03:53:45;;;;;;;6.80;6.10;;;;;16.20;101613.00;;;;2062516;28;20349;-51
2023/02/15 03:54:46;;;;;;;6.97;6.30;;;;;16.20;101602.00;;;;2061014;28;20222;-51
2023/02/15 03:55:47;;;;;;;6.23;5.73;;;;;16.20;101618.00;;;;2070209;28;20653;-50
2023/02/15 04:01:56;;;;;;;6.72;6.13;;;;;16.20;101622.00;;;;2086911;28;20212;-51
2023/02/15 04:02:19;;;;;;;6.03;5.50;;;;;16.10;101593.00;;;;2086032;28;20220;-51
2023/02/15 04:03:36;;;;;;;5.70;5.10;;;;;16.20;101607.00;;;;2082151;28;20220;-51
2023/02/15 04:04:38;;;;;;;7.05;6.35;;;;;16.20;101613.00;;;;2073654;28;20218;-51
2023/02/15 04:05:39;;;;;;;6.47;5.88;;;;;16.20;101615.00;;;;2075660;28;20224;-51
2023/02/15 04:06:39;;;;;;;6.57;5.87;;;;;16.10;101619.00;;;;2087917;28;20204;-51
2023/02/15 04:07:39;;;;;;;6.40;5.83;;;;;16.10;101613.00;;;;2088259;28;20231;-56
2023/02/15 04:11:18;;;;;;;6.00;5.40;;;;;16.20;101616.00;;;;2086665;28;20205;-51
2023/02/15 04:12:18;;;;;;;7.17;6.47;;;;;16.10;101602.00;;;;2086927;28;20213;-51
2023/02/15 04:13:20;;;;;;;6.67;6.07;;;;;16.20;101601.00;;;;2087289;28;20209;-51
2023/02/15 04:16:58;;;;;;;6.80;5.20;;;;;16.20;101612.00;;;;2087353;28;20205;-51
2023/02/15 04:17:58;;;;;;;6.80;6.13;;;;;16.20;101605.00;;;;2086861;28;20255;-51
2023/02/15 04:25:33;;;;;;;5.88;5.38;;;;;16.10;101613.00;;;;2086957;28;20220;-51
2023/02/15 04:26:33;;;;;;;6.23;5.73;;;;;16.10;101617.00;;;;2087057;28;20724;-51
2023/02/15 04:27:33;;;;;;;5.97;5.47;;;;;16.20;101598.00;;;;2087032;28;20696;-51
2023/02/15 04:28:34;;;;;;;5.83;5.33;;;;;16.20;101602.00;;;;2086102;28;20291;-51
2023/02/15 04:29:34;;;;;;;6.10;5.50;;;;;16.10;101606.00;;;;2087577;28;20228;-51
2023/02/15 04:30:35;;;;;;;5.97;5.47;;;;;16.10;101607.00;;;;2087386;28;20209;-51
2023/02/15 04:31:35;;;;;;;6.43;5.83;;;;;16.20;101589.00;;;;2087594;28;20701;-51
2023/02/15 04:32:35;;;;;;;6.37;5.80;;;;;16.10;101616.00;;;;2087677;28;20561;-52
2023/02/15 04:33:36;;;;;;;6.40;5.80;;;;;16.20;101601.00;;;;2087864;28;20700;-51
2023/02/15 04:34:36;;;;;;;6.30;5.70;;;;;16.20;101581.00;;;;2087022;28;20263;-51
2023/02/15 04:35:36;;;;;;;6.37;5.77;;;;;16.20;101585.00;;;;2087099;28;20556;-51
2023/02/15 04:36:37;;;;;;;5.37;4.80;;;;;16.10;101602.00;;;;2087047;28;20642;-50
2023/02/15 04:37:38;;;;;;;6.20;5.70;;;;;16.10;101603.00;;;;2087206;28;20780;-50
2023/02/15 04:38:38;;;;;;;6.23;5.50;;;;;16.10;101600.00;;;;2086546;28;20455;-50
2023/02/15 04:39:39;;;;;;;6.30;5.70;;;;;16.10;101601.00;;;;2087221;28;20205;-50
2023/02/15 04:40:39;;;;;;;6.00;5.50;;;;;16.10;101609.00;;;;2084194;28;20250;-50
2023/02/15 04:41:39;;;;;;;6.50;5.90;;;;;16.20;101606.00;;;;2094834;28;20246;-50
2023/02/15 04:42:40;;;;;;;7.10;6.50;;;;;16.10;101598.00;;;;2087225;28;20220;-50
2023/02/15 04:43:40;;;;;;;5.67;5.20;;;;;16.10;101613.00;;;;2086089;28;20209;-51
2023/02/15 04:44:41;;;;;;;5.70;5.20;;;;;16.10;101594.00;;;;2086922;28;20548;-50
2023/02/15 04:45:41;;;;;;;6.00;5.50;;;;;16.10;101598.00;;;;2086772;28;20228;-51
2023/02/15 04:46:42;;;;;;;6.47;5.87;;;;;16.10;101593.00;;;;2077926;28;20236;-51
2023/02/15 04:47:42;;;;;;;6.47;5.87;;;;;16.10;101598.00;;;;2077636;28;20213;-50
2023/02/15 04:48:43;;;;;;;6.23;5.63;;;;;16.10;101580.00;;;;2077156;28;20220;-51
2023/02/15 04:49:44;;;;;;;6.10;5.50;;;;;16.10;101595.00;;;;2086655;28;20217;-51
2023/02/15 04:50:44;;;;;;;6.17;5.67;;;;;16.10;101603.00;;;;2086351;28;20865;-50
2023/02/15 04:51:45;;;;;;;5.83;5.33;;;;;16.10;101596.00;;;;2085836;28;20205;-50
2023/02/15 04:52:45;;;;;;;6.40;5.90;;;;;16.10;101595.00;;;;2086099;28;20228;-50
2023/02/15 04:53:45;;;;;;;6.03;5.40;;;;;16.10;101601.00;;;;2086434;28;20282;-50
2023/02/15 04:54:46;;;;;;;5.77;5.27;;;;;16.10;101594.00;;;;2087403;28;20213;-51
2023/02/15 04:55:46;;;;;;;6.77;6.03;;;;;16.10;101586.00;;;;2086173;28;20286;-51
2023/02/15 04:56:46;;;;;;;6.97;6.27;;;;;16.10;101590.00;;;;2086555;28;20205;-52
2023/02/15 04:57:47;;;;;;;6.43;5.83;;;;;16.10;101589.00;;;;2086043;28;20263;-52
2023/02/15 04:58:47;;;;;;;5.63;5.13;;;;;16.10;101590.00;;;;2086041;28;20621;-51
2023/02/15 04:59:47;;;;;;;6.40;5.80;;;;;16.10;101593.00;;;;2086845;28;20564;-51
2023/02/15 05:00:48;;;;;;;5.97;5.47;;;;;16.10;101590.00;;;;2086278;28;20779;-51
2023/02/15 05:01:48;;;;;;;6.13;5.53;;;;;16.10;101594.00;;;;2086474;28;20209;-54
2023/02/15 05:02:48;;;;;;;6.27;5.67;;;;;16.10;101585.00;;;;2087103;28;20209;-53
2023/02/15 05:03:49;;;;;;;5.93;5.40;;;;;16.10;101588.00;;;;2086115;28;21604;-52
2023/02/15 05:04:49;;;;;;;6.03;5.43;;;;;16.10;101585.00;;;;2085888;28;20209;-54
2023/02/15 05:05:50;;;;;;;6.17;5.60;;;;;16.10;101591.00;;;;2086039;28;20205;-52
2023/02/15 05:06:50;;;;;;;7.60;5.70;;;;;16.10;101594.00;;;;2086455;28;20305;-52
2023/02/15 05:07:50;;;;;;;5.97;5.40;;;;;16.10;101591.00;;;;2085563;28;20205;-51
2023/02/15 05:08:51;;;;;;;6.00;5.40;;;;;16.10;101587.00;;;;2077078;28;20735;-50
2023/02/15 05:09:51;;;;;;;6.00;5.40;;;;;16.10;101596.00;;;;2085885;28;20305;-51
2023/02/15 05:10:51;;;;;;;6.07;5.47;;;;;16.10;101578.00;;;;2086274;28;20213;-51
2023/02/15 05:11:52;;;;;;;5.40;4.90;;;;;16.10;101590.00;;;;2087020;28;20370;-51
2023/02/15 05:12:52;;;;;;;6.20;5.70;;;;;16.10;101588.00;;;;2087057;28;20382;-51
2023/02/15 05:13:52;;;;;;;5.83;5.33;;;;;16.10;101593.00;;;;2087054;28;20221;-50
2023/02/15 05:14:53;;;;;;;6.30;5.70;;;;;16.10;101595.00;;;;2087294;28;20216;-51
2023/02/15 05:15:53;;;;;;;6.47;5.90;;;;;16.10;101593.00;;;;2087088;28;20294;-50
2023/02/15 05:16:53;;;;;;;5.57;5.07;;;;;16.10;101595.00;;;;2086971;28;20213;-51
2023/02/15 05:17:54;;;;;;;6.57;5.80;;;;;16.10;101586.00;;;;2085841;28;20693;-51
2023/02/15 05:18:54;;;;;;;5.63;5.17;;;;;16.10;101602.00;;;;2085615;28;20584;-50
2023/02/15 05:19:54;;;;;;;5.80;5.30;;;;;16.10;101599.00;;;;2087084;28;20762;-51
2023/02/15 05:20:55;;;;;;;6.07;5.57;;;;;16.10;101579.00;;;;2087487;28;20720;-50
2023/02/15 05:21:55;;;;;;;6.87;5.90;;;;;16.10;101582.00;;;;2087467;28;20219;-51
2023/02/15 05:22:55;;;;;;;6.70;6.10;;;;;16.10;101579.00;;;;2086797;28;20266;-51
2023/02/15 05:23:56;;;;;;;6.23;5.20;;;;;16.10;101575.00;;;;2087418;28;20209;-51
2023/02/15 05:28:59;;;;;;;6.00;5.50;;;;;16.10;101573.00;;;;2086456;28;20268;-50
2023/02/15 05:30:00;;;;;;;6.43;5.93;;;;;16.10;101572.00;;;;2087024;28;20243;-50
2023/02/15 05:31:14;;;;;;;6.13;5.53;;;;;16.00;101571.00;;;;2087068;28;20439;-50
2023/02/15 05:32:14;;;;;;;5.63;5.13;;;;;16.00;101570.00;;;;2086454;28;20220;-50
2023/02/15 05:33:14;;;;;;;5.47;4.97;;;;;16.00;101558.00;;;;2085842;28;20208;-50
2023/02/15 05:34:15;;;;;;;6.50;5.43;;;;;16.00;101568.00;;;;2086990;28;20315;-50
2023/02/15 05:35:15;;;;;;;5.73;5.23;;;;;16.00;101566.00;;;;2086974;28;20262;-50
2023/02/15 05:36:16;;;;;;;6.10;5.50;;;;;16.10;101567.00;;;;2086849;28;20205;-50
2023/02/15 05:37:16;;;;;;;5.87;5.37;;;;;16.10;101570.00;;;;2087173;28;20557;-50
2023/02/15 05:38:16;;;;;;;6.17;5.67;;;;;16.10;101565.00;;;;2086255;28;20243;-50
2023/02/15 05:39:17;;;;;;;5.40;4.90;;;;;16.10;101558.00;;;;2087044;28;20224;-50